Terminal Aerodrome Forecast
Issued by NWS Jackson, KY

Home | Current Version | Previous Version | Text Only | Print | Product List | Glossary On
Versions: 1 2 3 4 5 6 7 8 9 10 11 12 13 14
000
FTUS43 KJKL 160500
TAFJKL
TAF
KJKL 160527Z 1606/1706 VRB03KT P6SM VCSH OVC060
     FM161200 00000KT P6SM VCSH BKN022 OVC030
     FM161400 VRB03KT 5SM -DZ BR OVC012
     FM161800 VRB03KT P6SM BKN022
     FM162300 00000KT P6SM SCT035=

USA.gov is the U.S. government's official web portal to all federal, state and local government web resources and services.